createdAt,value
2019-02-11T00:01:49.135Z,48.38
2019-02-11T00:04:28.168Z,47.83
2019-02-11T00:07:07.353Z,48.42
2019-02-11T00:09:46.014Z,46.75
2019-02-11T00:12:25.177Z,48.15
2019-02-11T00:15:03.772Z,50.05
2019-02-11T00:17:43.788Z,51.30
2019-02-11T00:20:22.315Z,51.15
2019-02-11T00:23:00.603Z,51.45
2019-02-11T00:25:39.387Z,50.55
2019-02-11T00:28:19.405Z,51.20
2019-02-11T00:30:58.213Z,48.45
2019-02-11T00:33:36.841Z,51.33
2019-02-11T00:36:15.205Z,49.77
2019-02-11T00:38:54.025Z,49.15
2019-02-11T00:41:33.025Z,51.83
2019-02-11T00:44:12.678Z,52.17
2019-02-11T00:46:52.431Z,50.45
2019-02-11T00:49:32.004Z,51.30
2019-02-11T00:52:10.959Z,52.08
2019-02-11T00:54:49.545Z,49.70
2019-02-11T00:57:28.241Z,48.80
2019-02-11T01:00:07.551Z,46.85
2019-02-11T01:02:47.355Z,47.17
2019-02-11T01:05:26.343Z,45.28
2019-02-11T01:08:05.066Z,44.75
2019-02-11T01:10:44.431Z,42.55
2019-02-11T01:13:27.846Z,40.50
2019-02-11T01:16:02.925Z,41.45
2019-02-11T01:18:41.993Z,41.08
2019-02-11T01:21:21.121Z,39.48
2019-02-11T01:23:59.834Z,38.28
2019-02-11T01:26:38.959Z,38.48
2019-02-11T01:29:17.437Z,37.98
2019-02-11T01:31:56.302Z,38.15
2019-02-11T01:34:34.982Z,38.90
2019-02-11T01:37:13.794Z,39.00
2019-02-11T01:39:52.443Z,37.80
2019-02-11T01:42:32.441Z,37.73
2019-02-11T01:45:11.287Z,36.73
2019-02-11T01:47:50.418Z,37.33
2019-02-11T01:50:29.144Z,37.48
2019-02-11T01:53:08.291Z,37.63
2019-02-11T01:55:46.843Z,35.90
2019-02-11T01:58:25.827Z,36.75
2019-02-11T02:01:04.446Z,36.38
2019-02-11T02:03:43.182Z,36.33
2019-02-11T02:06:21.647Z,36.95
2019-02-11T02:09:00.520Z,35.43
2019-02-11T02:11:40.222Z,34.75
2019-02-11T02:14:18.237Z,34.45
2019-02-11T02:16:57.349Z,35.65
2019-02-11T02:19:36.035Z,34.40
2019-02-11T02:22:14.918Z,35.63
2019-02-11T02:24:53.421Z,35.17
2019-02-11T02:27:32.115Z,34.03
2019-02-11T02:30:11.471Z,34.85
2019-02-11T02:32:50.087Z,34.05
2019-02-11T02:35:28.680Z,34.70
2019-02-11T02:38:07.216Z,36.03
2019-02-11T02:40:45.981Z,37.05
2019-02-11T02:43:24.469Z,35.83
2019-02-11T02:46:03.496Z,37.53
2019-02-11T02:48:42.076Z,37.33
2019-02-11T02:51:20.926Z,36.25
2019-02-11T02:53:59.485Z,35.33
2019-02-11T02:56:38.355Z,35.45
2019-02-11T02:59:16.828Z,36.20
2019-02-11T03:01:55.637Z,36.08
2019-02-11T03:04:34.937Z,36.20
2019-02-11T03:07:14.067Z,34.95
2019-02-11T03:09:53.143Z,35.25
2019-02-11T03:12:32.100Z,34.13
2019-02-11T03:15:11.308Z,34.23
2019-02-11T03:17:50.332Z,35.52
2019-02-11T03:20:28.995Z,35.58
2019-02-11T03:23:07.913Z,35.78
2019-02-11T03:25:46.535Z,35.70
2019-02-11T03:28:35.148Z,34.63
2019-02-11T03:31:14.291Z,35.25
2019-02-11T03:33:53.267Z,34.78
2019-02-11T03:36:33.202Z,34.63
2019-02-11T03:39:12.530Z,35.10
2019-02-11T03:41:51.181Z,34.55
2019-02-11T03:44:29.824Z,35.10
2019-02-11T03:47:08.881Z,34.80
2019-02-11T03:49:47.954Z,35.20
2019-02-11T03:52:26.945Z,34.95
2019-02-11T03:55:05.877Z,33.60
2019-02-11T03:57:44.188Z,34.27
2019-02-11T04:00:23.120Z,33.80
2019-02-11T04:03:02.087Z,32.93
2019-02-11T04:05:41.294Z,33.38
2019-02-11T04:08:19.790Z,35.75
2019-02-11T04:10:59.289Z,33.45
2019-02-11T04:13:38.119Z,31.80
2019-02-11T04:16:16.973Z,32.88
2019-02-11T04:18:55.702Z,32.25
2019-02-11T04:21:34.052Z,33.23
2019-02-11T04:24:12.754Z,31.73
2019-02-11T04:26:51.256Z,33.20
2019-02-11T04:29:30.233Z,32.65
2019-02-11T04:32:09.384Z,31.25
2019-02-11T04:34:48.084Z,31.33
2019-02-11T04:37:26.766Z,30.95
2019-02-11T04:40:05.640Z,30.43
2019-02-11T04:42:44.112Z,31.97
2019-02-11T04:45:22.959Z,31.40
2019-02-11T04:48:01.788Z,30.20
2019-02-11T04:50:40.473Z,29.87
2019-02-11T04:53:19.104Z,28.47
2019-02-11T04:55:57.490Z,30.50
2019-02-11T04:58:36.500Z,29.37
2019-02-11T05:01:15.292Z,28.45
2019-02-11T05:03:54.090Z,29.77
2019-02-11T05:06:32.815Z,29.63
2019-02-11T05:09:12.006Z,31.05
2019-02-11T05:11:51.734Z,31.05
2019-02-11T05:14:30.513Z,31.30
2019-02-11T05:17:09.293Z,31.27
2019-02-11T05:19:48.185Z,31.45
2019-02-11T05:22:26.672Z,31.00
2019-02-11T05:25:05.284Z,32.60
2019-02-11T05:27:43.732Z,32.45
2019-02-11T05:30:22.568Z,32.33
2019-02-11T05:33:01.415Z,32.30
2019-02-11T05:35:39.772Z,32.35
2019-02-11T05:38:19.646Z,31.68
2019-02-11T05:40:58.204Z,32.88
2019-02-11T05:43:37.206Z,33.05
2019-02-11T05:46:15.947Z,33.58
2019-02-11T05:48:54.618Z,34.92
2019-02-11T05:51:33.316Z,33.67
2019-02-11T05:54:11.993Z,33.73
2019-02-11T05:56:50.507Z,33.88
2019-02-11T05:59:30.580Z,33.75
2019-02-11T06:02:08.918Z,33.63
2019-02-11T06:04:47.504Z,35.23
2019-02-11T06:07:26.677Z,35.30
2019-02-11T06:10:05.420Z,35.48
2019-02-11T06:12:45.617Z,35.60
2019-02-11T06:15:24.317Z,34.58
2019-02-11T06:18:04.046Z,36.90
2019-02-11T06:20:43.042Z,36.75
2019-02-11T06:23:21.581Z,38.00
2019-02-11T06:26:00.625Z,36.42
2019-02-11T06:28:39.338Z,36.13
2019-02-11T06:31:18.166Z,35.68
2019-02-11T06:33:56.600Z,36.33
2019-02-11T06:36:35.458Z,36.25
2019-02-11T06:39:14.114Z,37.58
2019-02-11T06:41:53.318Z,35.90
2019-02-11T06:44:32.019Z,35.43
2019-02-11T06:47:10.659Z,37.55
2019-02-11T06:49:49.348Z,40.67
2019-02-11T06:52:28.168Z,38.83
2019-02-11T06:55:06.808Z,38.75
2019-02-11T06:57:45.930Z,37.05
2019-02-11T07:00:24.603Z,37.13
2019-02-11T07:03:02.804Z,38.08
2019-02-11T07:05:41.814Z,38.58
2019-02-11T07:08:21.368Z,37.25
2019-02-11T07:11:00.241Z,37.20
2019-02-11T07:13:39.834Z,36.88
2019-02-11T07:16:18.530Z,38.48
2019-02-11T07:18:57.801Z,35.45
2019-02-11T07:21:36.382Z,35.80
2019-02-11T07:24:15.226Z,35.85
2019-02-11T07:26:53.464Z,36.17
2019-02-11T07:29:32.241Z,35.73
2019-02-11T07:32:10.786Z,36.58
2019-02-11T07:34:49.548Z,43.28
2019-02-11T07:37:28.311Z,39.20
2019-02-11T07:40:08.019Z,37.58
2019-02-11T07:43:04.204Z,37.93
2019-02-11T07:46:04.805Z,39.67
2019-02-11T07:48:43.277Z,38.30
2019-02-11T07:51:22.254Z,38.53
2019-02-11T07:54:01.138Z,37.95
2019-02-11T07:56:40.180Z,37.08
2019-02-11T07:59:18.825Z,38.30
2019-02-11T08:01:57.827Z,41.63
2019-02-11T08:04:36.461Z,39.95
2019-02-11T08:07:15.442Z,38.98
2019-02-11T08:09:54.175Z,41.75
2019-02-11T08:12:32.739Z,39.10
2019-02-11T08:15:11.604Z,41.77
2019-02-11T08:17:50.769Z,38.78
2019-02-11T08:20:29.184Z,39.75
2019-02-11T08:23:12.061Z,38.45
2019-02-11T08:25:47.465Z,39.10
2019-02-11T08:28:25.542Z,38.78
2019-02-11T08:31:04.077Z,38.58
2019-02-11T08:33:42.871Z,39.33
2019-02-11T08:36:21.631Z,37.85
2019-02-11T08:39:02.093Z,38.20
2019-02-11T08:41:41.930Z,38.60
2019-02-11T08:44:20.922Z,55.45
2019-02-11T08:46:59.731Z,39.58
2019-02-11T08:49:38.632Z,37.40
2019-02-11T08:52:17.697Z,36.95
2019-02-11T08:54:56.731Z,36.85
2019-02-11T08:57:35.226Z,36.70
2019-02-11T09:00:14.433Z,36.55
2019-02-11T09:02:53.084Z,36.35
2019-02-11T09:05:31.911Z,35.48
2019-02-11T09:08:10.420Z,35.25
2019-02-11T09:10:49.665Z,35.55
2019-02-11T09:13:29.345Z,36.28
2019-02-11T09:16:08.048Z,35.52
2019-02-11T09:18:46.536Z,37.05
2019-02-11T09:21:25.114Z,35.45
2019-02-11T09:24:05.883Z,35.73
2019-02-11T09:26:44.415Z,34.65
2019-02-11T09:29:23.227Z,35.48
2019-02-11T09:32:02.832Z,36.17
2019-02-11T09:34:43.856Z,36.30
2019-02-11T09:37:22.673Z,36.03
2019-02-11T09:40:01.492Z,36.85
2019-02-11T09:42:40.810Z,36.08
2019-02-11T09:45:22.500Z,34.53
2019-02-11T09:48:01.199Z,33.67
2019-02-11T09:50:43.212Z,35.48
2019-02-11T09:53:22.527Z,32.45
2019-02-11T09:56:01.164Z,32.73
2019-02-11T09:58:39.818Z,32.08
2019-02-11T10:01:18.696Z,32.80
2019-02-11T10:03:57.215Z,32.65
2019-02-11T10:06:36.738Z,31.37
2019-02-11T10:09:15.530Z,31.20
2019-02-11T10:11:54.890Z,34.15
2019-02-11T10:14:33.715Z,32.35
2019-02-11T10:17:12.990Z,31.77
2019-02-11T10:19:52.626Z,32.40
2019-02-11T10:22:31.313Z,32.83
2019-02-11T10:25:10.491Z,32.13
2019-02-11T10:27:49.645Z,31.75
2019-02-11T10:30:28.416Z,30.37
2019-02-11T10:33:06.950Z,30.80
2019-02-11T10:35:45.591Z,30.72
2019-02-11T10:38:24.579Z,30.88
2019-02-11T10:41:04.938Z,31.87
2019-02-11T10:43:43.908Z,30.50
2019-02-11T10:46:22.464Z,31.10
2019-02-11T10:49:01.485Z,31.02
2019-02-11T10:51:40.288Z,30.08
2019-02-11T10:54:18.846Z,30.15
2019-02-11T10:56:57.940Z,30.10
2019-02-11T10:59:36.537Z,30.05
2019-02-11T11:02:15.203Z,30.85
2019-02-11T11:04:54.321Z,31.00
2019-02-11T11:07:32.916Z,31.95
2019-02-11T11:10:14.542Z,31.12
2019-02-11T11:12:53.146Z,31.80
2019-02-11T11:15:31.840Z,31.95
2019-02-11T11:18:10.931Z,32.50
2019-02-11T11:20:49.827Z,31.48
2019-02-11T11:23:28.870Z,32.05
2019-02-11T11:26:08.604Z,31.68
2019-02-11T11:28:47.236Z,32.35
2019-02-11T11:31:26.087Z,34.00
2019-02-11T11:34:04.793Z,34.83
2019-02-11T11:36:43.801Z,34.80
2019-02-11T11:39:30.207Z,35.20
2019-02-11T11:42:09.129Z,33.28
2019-02-11T11:44:47.932Z,32.93
2019-02-11T11:47:27.073Z,33.02
2019-02-11T11:50:05.891Z,32.88
2019-02-11T11:52:44.895Z,34.13
2019-02-11T11:55:23.988Z,34.73
2019-02-11T11:58:02.742Z,35.05
2019-02-11T12:00:41.454Z,35.00
2019-02-11T12:03:20.357Z,33.67
2019-02-11T12:05:58.954Z,32.90
2019-02-11T12:08:37.774Z,35.75
2019-02-11T12:11:16.454Z,34.40
2019-02-11T12:13:55.032Z,36.23
2019-02-11T12:16:34.229Z,34.45
2019-02-11T12:19:12.976Z,35.88
2019-02-11T12:21:51.869Z,37.40
2019-02-11T12:24:32.176Z,38.95
2019-02-11T12:27:12.383Z,39.13
2019-02-11T12:29:50.900Z,38.00
2019-02-11T12:32:30.017Z,37.33
2019-02-11T12:35:08.733Z,37.05
2019-02-11T12:37:47.955Z,36.55
2019-02-11T12:40:26.635Z,36.15
2019-02-11T12:43:05.503Z,36.05
2019-02-11T12:45:44.515Z,36.17
2019-02-11T12:48:24.009Z,38.63
2019-02-11T12:51:02.631Z,37.88
2019-02-11T12:53:41.795Z,38.20
2019-02-11T12:56:20.678Z,38.73
2019-02-11T12:58:59.025Z,40.05
2019-02-11T13:01:37.592Z,37.55
2019-02-11T13:04:16.397Z,38.23
2019-02-11T13:06:54.915Z,38.48
2019-02-11T13:09:34.005Z,38.30
2019-02-11T13:12:12.232Z,37.67
2019-02-11T13:14:52.183Z,38.17
2019-02-11T13:17:34.456Z,38.45
2019-02-11T13:20:12.054Z,39.85
2019-02-11T13:22:51.390Z,40.30
2019-02-11T13:25:29.887Z,40.03
2019-02-11T13:28:08.670Z,39.10
2019-02-11T13:30:48.406Z,38.92
2019-02-11T13:33:27.096Z,39.95
2019-02-11T13:36:06.272Z,39.18
2019-02-11T13:38:45.359Z,38.08
2019-02-11T13:41:24.401Z,39.45
2019-02-11T13:44:02.922Z,39.53
2019-02-11T13:46:41.483Z,40.10
2019-02-11T13:49:20.497Z,39.10
2019-02-11T13:52:00.776Z,38.38
2019-02-11T13:54:39.266Z,41.13
2019-02-11T13:57:18.370Z,40.90
2019-02-11T13:59:57.639Z,40.45
2019-02-11T14:02:36.836Z,41.23
2019-02-11T14:05:15.695Z,43.63
2019-02-11T14:07:54.574Z,45.43
2019-02-11T14:10:36.741Z,46.33
2019-02-11T14:13:15.465Z,42.85
2019-02-11T14:15:54.322Z,43.02
2019-02-11T14:18:33.633Z,42.85
2019-02-11T14:21:12.337Z,41.68
2019-02-11T14:23:50.966Z,41.60
2019-02-11T14:26:30.583Z,41.75
2019-02-11T14:29:09.702Z,42.23
2019-02-11T14:31:48.328Z,42.67
2019-02-11T14:34:27.024Z,41.75
2019-02-11T14:37:06.185Z,40.40
2019-02-11T14:39:44.382Z,40.67
2019-02-11T14:42:40.836Z,40.70
2019-02-11T14:45:25.257Z,40.78
2019-02-11T14:48:04.514Z,40.67
2019-02-11T14:50:43.130Z,41.48
2019-02-11T14:53:22.374Z,44.38
2019-02-11T14:56:01.063Z,44.45
2019-02-11T14:58:39.675Z,45.48
2019-02-11T15:01:18.192Z,46.88
2019-02-11T15:03:56.767Z,45.75
2019-02-11T15:06:35.475Z,46.35
2019-02-11T15:09:14.528Z,44.27
2019-02-11T15:11:53.512Z,42.23
2019-02-11T15:14:32.261Z,43.87
2019-02-11T15:17:11.259Z,45.23
2019-02-11T15:19:50.485Z,46.95
2019-02-11T15:22:29.247Z,48.25
2019-02-11T15:25:07.227Z,48.83
2019-02-11T15:27:45.794Z,46.68
2019-02-11T15:30:24.802Z,46.08
2019-02-11T15:33:04.567Z,46.58
2019-02-11T15:35:43.320Z,46.50
2019-02-11T15:38:22.031Z,47.25
2019-02-11T15:41:01.041Z,48.45
2019-02-11T15:43:39.614Z,47.93
2019-02-11T15:46:18.644Z,49.27
2019-02-11T15:48:57.331Z,48.05
2019-02-11T15:51:35.807Z,48.02
2019-02-11T15:54:14.716Z,47.65
2019-02-11T15:56:53.704Z,48.28
2019-02-11T15:59:32.375Z,47.93
2019-02-11T16:02:11.148Z,48.13
2019-02-11T16:04:50.265Z,48.83
2019-02-11T16:07:28.630Z,46.28
2019-02-11T16:10:07.800Z,47.15
2019-02-11T16:12:46.604Z,47.45
2019-02-11T16:15:25.451Z,48.48
2019-02-11T16:18:03.987Z,47.80
2019-02-11T16:20:44.825Z,48.98
2019-02-11T16:23:23.459Z,50.20
2019-02-11T16:26:04.103Z,49.42
2019-02-11T16:28:42.725Z,48.55
2019-02-11T16:31:21.692Z,48.58
2019-02-11T16:34:00.307Z,49.40
2019-02-11T16:36:38.943Z,49.45
2019-02-11T16:39:18.307Z,50.00
2019-02-11T16:41:57.164Z,49.53
2019-02-11T16:44:36.163Z,48.38
2019-02-11T16:47:14.465Z,49.55
2019-02-11T16:49:53.037Z,49.03
2019-02-11T16:52:31.517Z,48.33
2019-02-11T16:55:11.730Z,46.90
2019-02-11T16:57:50.722Z,48.85
2019-02-11T17:00:29.264Z,46.75
2019-02-11T17:03:08.195Z,45.60
2019-02-11T17:05:46.834Z,45.60
2019-02-11T17:08:25.816Z,44.42
2019-02-11T17:11:04.250Z,42.78
2019-02-11T17:13:44.100Z,43.00
2019-02-11T17:16:22.782Z,42.60
2019-02-11T17:19:09.216Z,41.63
2019-02-11T17:21:43.053Z,44.98
2019-02-11T17:24:22.048Z,42.65
2019-02-11T17:27:00.428Z,43.95
2019-02-11T17:29:39.177Z,41.48
2019-02-11T17:32:17.878Z,42.75
2019-02-11T17:34:56.498Z,42.10
2019-02-11T17:37:35.781Z,42.88
2019-02-11T17:40:15.360Z,42.85
2019-02-11T17:42:55.324Z,41.80
2019-02-11T17:45:34.520Z,41.15
2019-02-11T17:48:13.731Z,42.85
2019-02-11T17:50:52.400Z,41.40
2019-02-11T17:53:31.441Z,42.62
2019-02-11T17:56:10.719Z,41.98
2019-02-11T17:58:49.793Z,42.75
2019-02-11T18:01:28.460Z,43.20
2019-02-11T18:04:07.111Z,42.50
2019-02-11T18:06:45.819Z,42.43
2019-02-11T18:09:24.786Z,40.58
2019-02-11T18:12:03.338Z,42.60
2019-02-11T18:14:41.819Z,42.60
2019-02-11T18:17:20.658Z,40.25
2019-02-11T18:19:59.525Z,41.92
2019-02-11T18:22:39.317Z,42.98
2019-02-11T18:25:18.188Z,43.38
2019-02-11T18:27:57.320Z,42.48
2019-02-11T18:30:35.883Z,42.05
2019-02-11T18:33:14.978Z,42.70
2019-02-11T18:35:53.548Z,42.75
2019-02-11T18:38:32.544Z,41.18
2019-02-11T18:41:11.175Z,39.83
2019-02-11T18:43:50.269Z,40.55
2019-02-11T18:46:28.707Z,40.35
2019-02-11T18:49:07.777Z,40.55
2019-02-11T18:51:46.360Z,39.55
2019-02-11T18:54:24.927Z,40.78
2019-02-11T18:57:04.275Z,39.25
2019-02-11T18:59:42.860Z,40.55
2019-02-11T19:02:21.609Z,40.25
2019-02-11T19:05:00.502Z,39.40
2019-02-11T19:07:41.425Z,39.65
2019-02-11T19:10:20.469Z,39.65
2019-02-11T19:12:59.064Z,39.48
2019-02-11T19:15:37.748Z,39.73
2019-02-11T19:18:16.746Z,39.98
2019-02-11T19:20:55.417Z,39.53
2019-02-11T19:23:34.825Z,39.55
2019-02-11T19:26:13.349Z,40.12
2019-02-11T19:28:52.424Z,41.20
2019-02-11T19:31:31.226Z,40.58
2019-02-11T19:34:10.356Z,39.78
2019-02-11T19:36:48.964Z,39.63
2019-02-11T19:39:27.808Z,40.33
2019-02-11T19:42:06.329Z,40.85
2019-02-11T19:44:45.021Z,40.95
2019-02-11T19:47:23.512Z,39.65
2019-02-11T19:50:02.078Z,41.40
2019-02-11T19:52:40.680Z,42.70
2019-02-11T19:55:19.607Z,42.45
2019-02-11T19:57:58.185Z,40.38
2019-02-11T20:00:37.094Z,40.43
2019-02-11T20:03:15.606Z,40.88
2019-02-11T20:05:54.677Z,41.00
2019-02-11T20:08:34.392Z,40.23
2019-02-11T20:11:13.195Z,41.45
2019-02-11T20:13:52.309Z,39.40
2019-02-11T20:16:31.073Z,40.55
2019-02-11T20:19:10.092Z,39.67
2019-02-11T20:21:48.807Z,41.30
2019-02-11T20:24:29.087Z,37.53
2019-02-11T20:27:07.910Z,36.75
2019-02-11T20:29:46.989Z,32.23
2019-02-11T20:32:25.673Z,30.85
2019-02-11T20:35:04.839Z,29.92
2019-02-11T20:37:43.533Z,29.77
2019-02-11T20:40:24.110Z,29.05
2019-02-11T20:43:02.876Z,26.35
2019-02-11T20:45:41.672Z,25.82
2019-02-11T20:48:20.415Z,26.48
2019-02-11T20:50:59.409Z,25.92
2019-02-11T20:53:38.289Z,25.00
2019-02-11T20:56:17.010Z,24.00
2019-02-11T20:58:55.583Z,24.63
2019-02-11T21:01:34.703Z,22.95
2019-02-11T21:04:13.130Z,23.07
2019-02-11T21:06:52.483Z,22.87
2019-02-11T21:09:31.016Z,23.60
2019-02-11T21:12:09.760Z,23.83
2019-02-11T21:14:48.606Z,23.05
2019-02-11T21:17:27.590Z,22.30
2019-02-11T21:20:06.275Z,22.98
2019-02-11T21:22:45.147Z,20.43
2019-02-11T21:25:24.460Z,20.65
2019-02-11T21:28:03.138Z,19.62
2019-02-11T21:30:43.121Z,20.52
2019-02-11T21:33:22.005Z,19.52
2019-02-11T21:36:00.532Z,19.45
2019-02-11T21:38:39.558Z,18.82
2019-02-11T21:41:18.186Z,18.45
2019-02-11T21:43:56.842Z,18.48
2019-02-11T21:46:35.758Z,18.20
2019-02-11T21:49:14.311Z,19.05
2019-02-11T21:51:53.239Z,18.25
2019-02-11T21:54:32.065Z,17.57
2019-02-11T21:57:10.716Z,18.60
2019-02-11T21:59:49.555Z,18.75
2019-02-11T22:02:28.271Z,18.12
2019-02-11T22:05:07.602Z,18.50
2019-02-11T22:07:46.113Z,18.67
2019-02-11T22:10:25.486Z,19.42
2019-02-11T22:13:04.322Z,20.55
2019-02-11T22:15:44.117Z,19.95
2019-02-11T22:18:22.682Z,19.30
2019-02-11T22:21:01.396Z,19.02
2019-02-11T22:23:40.211Z,19.07
2019-02-11T22:26:19.638Z,20.00
2019-02-11T22:28:58.024Z,17.37
2019-02-11T22:31:36.868Z,17.95
2019-02-11T22:34:15.788Z,18.32
2019-02-11T22:36:54.563Z,19.00
2019-02-11T22:39:33.494Z,17.30
2019-02-11T22:42:12.445Z,17.62
2019-02-11T22:44:51.043Z,16.57
2019-02-11T22:47:29.949Z,17.77
2019-02-11T22:50:09.036Z,16.75
2019-02-11T22:52:47.765Z,17.75
2019-02-11T22:55:26.394Z,16.80
2019-02-11T22:58:05.031Z,16.90
2019-02-11T23:00:53.177Z,18.10
2019-02-11T23:03:32.398Z,17.42
2019-02-11T23:06:11.116Z,17.60
2019-02-11T23:08:49.530Z,16.30
2019-02-11T23:11:27.956Z,16.57
2019-02-11T23:14:07.214Z,17.40
2019-02-11T23:16:46.095Z,16.65
2019-02-11T23:19:24.783Z,17.27
2019-02-11T23:22:03.502Z,16.93
2019-02-11T23:24:42.430Z,17.55
2019-02-11T23:27:21.918Z,17.65
2019-02-11T23:30:00.973Z,18.48
2019-02-11T23:32:39.663Z,18.15
2019-02-11T23:35:18.236Z,18.25
2019-02-11T23:37:56.873Z,18.65
2019-02-11T23:40:35.462Z,18.75
2019-02-11T23:43:14.123Z,18.50
2019-02-11T23:45:53.001Z,17.70
2019-02-11T23:48:31.802Z,17.67
2019-02-11T23:51:10.306Z,18.02
2019-02-11T23:53:49.495Z,18.32
2019-02-11T23:56:27.937Z,18.07
2019-02-11T23:59:06.539Z,18.55
